createdAt,value
2023-03-22T00:01:10.469Z,59.05
2023-03-22T00:06:13.898Z,59.44
2023-03-22T00:11:18.992Z,59.72
2023-03-22T00:16:22.291Z,59.65
2023-03-22T00:21:25.153Z,59.53
2023-03-22T00:26:29.299Z,59.62
2023-03-22T00:31:32.076Z,59.71
2023-03-22T00:36:37.812Z,59.64
2023-03-22T00:41:42.910Z,59.71
2023-03-22T00:46:45.872Z,59.73
2023-03-22T00:51:48.780Z,59.73
2023-03-22T00:56:53.389Z,59.74
2023-03-22T01:01:56.649Z,59.90
2023-03-22T01:07:02.079Z,60.14
2023-03-22T01:12:06.893Z,60.17
2023-03-22T01:17:10.427Z,60.24
2023-03-22T01:22:13.191Z,60.36
2023-03-22T01:27:17.938Z,60.52
2023-03-22T01:32:20.761Z,60.67
2023-03-22T01:37:25.453Z,60.88
2023-03-22T01:42:30.448Z,61.06
2023-03-22T01:47:36.357Z,61.12
2023-03-22T01:52:39.745Z,61.21
2023-03-22T01:57:55.715Z,61.37
2023-03-22T02:03:15.989Z,61.49
2023-03-22T02:08:22.048Z,61.66
2023-03-22T02:13:47.951Z,61.75
2023-03-22T02:19:34.423Z,62.02
2023-03-22T02:25:08.655Z,62.04
2023-03-22T02:30:37.384Z,62.24
2023-03-22T02:35:53.174Z,62.42
2023-03-22T02:41:08.130Z,62.32
2023-03-22T02:46:17.519Z,62.47
2023-03-22T02:51:24.106Z,62.68
2023-03-22T02:56:32.292Z,62.64
2023-03-22T03:01:40.714Z,62.73
2023-03-22T03:06:49.947Z,62.96
2023-03-22T03:11:55.085Z,62.97
2023-03-22T03:17:12.143Z,63.00
2023-03-22T03:22:33.851Z,63.14
2023-03-22T03:27:44.097Z,63.01
2023-03-22T03:32:53.490Z,63.56
2023-03-22T03:38:02.550Z,63.38
2023-03-22T03:43:07.975Z,63.40
2023-03-22T03:48:17.824Z,63.60
2023-03-22T03:53:20.611Z,63.59
2023-03-22T03:58:24.781Z,63.55
2023-03-22T04:03:27.695Z,63.74
2023-03-22T04:08:53.805Z,63.71
2023-03-22T04:14:02.182Z,63.88
2023-03-22T04:19:04.959Z,63.94
2023-03-22T04:24:08.671Z,64.01
2023-03-22T04:29:16.525Z,64.17
2023-03-22T04:34:24.334Z,64.02
2023-03-22T04:39:31.112Z,63.99
2023-03-22T04:44:49.573Z,64.12
2023-03-22T04:49:53.033Z,64.07
2023-03-22T04:54:55.843Z,64.13
2023-03-22T05:00:00.405Z,64.01
2023-03-22T05:05:03.788Z,64.01
2023-03-22T05:10:11.957Z,64.01
2023-03-22T05:15:17.412Z,64.03
2023-03-22T05:20:20.919Z,64.07
2023-03-22T05:25:34.363Z,63.93
2023-03-22T05:30:39.142Z,64.12
2023-03-22T05:35:59.553Z,63.97
2023-03-22T05:41:06.299Z,64.08
2023-03-22T05:46:13.358Z,64.13
2023-03-22T05:51:25.737Z,63.94
2023-03-22T05:56:29.730Z,64.09
2023-03-22T06:01:42.049Z,63.92
2023-03-22T06:06:53.838Z,63.98
2023-03-22T06:12:09.700Z,63.95
2023-03-22T06:17:14.256Z,64.00
2023-03-22T06:22:17.802Z,64.17
2023-03-22T06:27:21.816Z,64.19
2023-03-22T06:32:26.731Z,64.18
2023-03-22T06:37:30.414Z,64.20
2023-03-22T06:42:34.220Z,63.86
2023-03-22T06:47:46.304Z,63.89
2023-03-22T06:52:59.904Z,63.87
2023-03-22T06:58:03.375Z,64.02
2023-03-22T07:03:07.565Z,64.02
2023-03-22T07:08:23.235Z,63.96
2023-03-22T07:13:27.001Z,63.97
2023-03-22T07:18:36.942Z,63.90
2023-03-22T07:23:40.686Z,63.92
2023-03-22T07:28:47.577Z,63.90
2023-03-22T07:33:53.096Z,63.73
2023-03-22T07:38:59.920Z,63.64
2023-03-22T07:44:17.699Z,56.39
2023-03-22T07:49:37.763Z,57.49
2023-03-22T07:54:45.583Z,56.73
2023-03-22T07:59:48.916Z,59.30
2023-03-22T08:04:56.464Z,61.45
2023-03-22T08:10:25.787Z,60.28
2023-03-22T08:15:30.548Z,58.75
2023-03-22T08:20:35.742Z,57.75
2023-03-22T08:25:44.081Z,57.73
2023-03-22T08:30:49.868Z,57.69
2023-03-22T08:36:04.616Z,57.96
2023-03-22T08:41:07.946Z,57.78
2023-03-22T08:46:10.866Z,58.07
2023-03-22T08:51:17.103Z,58.22
2023-03-22T08:56:38.044Z,58.32
2023-03-22T09:01:53.442Z,58.54
2023-03-22T09:06:57.730Z,58.55
2023-03-22T09:12:00.903Z,58.60
2023-03-22T09:17:03.905Z,58.91
2023-03-22T09:22:08.665Z,58.26
2023-03-22T09:27:19.011Z,58.52
2023-03-22T09:32:21.939Z,58.57
2023-03-22T09:37:32.703Z,58.78
2023-03-22T09:42:40.909Z,58.73
2023-03-22T09:47:48.713Z,58.87
2023-03-22T09:52:54.461Z,59.02
2023-03-22T09:58:07.482Z,56.77
2023-03-22T10:03:22.134Z,55.73
2023-03-22T10:08:37.638Z,55.31
2023-03-22T10:13:46.672Z,55.06
2023-03-22T10:18:53.312Z,55.27
2023-03-22T10:24:08.321Z,55.06
2023-03-22T10:29:20.429Z,55.26
2023-03-22T10:34:27.958Z,55.96
2023-03-22T10:39:38.357Z,56.29
2023-03-22T10:44:48.764Z,56.73
2023-03-22T10:49:55.098Z,56.35
2023-03-22T10:55:03.802Z,55.99
2023-03-22T11:00:11.651Z,55.21
2023-03-22T11:05:22.987Z,55.21
2023-03-22T11:10:32.579Z,55.31
2023-03-22T11:15:38.666Z,55.87
2023-03-22T11:20:43.849Z,55.99
2023-03-22T11:25:50.635Z,55.16
2023-03-22T11:31:03.786Z,55.64
2023-03-22T11:36:18.153Z,55.21
2023-03-22T11:41:25.859Z,54.93
2023-03-22T11:46:30.429Z,54.99
2023-03-22T11:51:36.067Z,54.00
2023-03-22T11:56:45.970Z,53.53
2023-03-22T12:01:53.595Z,54.42
2023-03-22T12:07:00.937Z,53.74
2023-03-22T12:12:07.711Z,53.58
2023-03-22T12:17:16.675Z,53.59
2023-03-22T12:22:22.531Z,53.15
2023-03-22T12:27:31.957Z,53.19
2023-03-22T12:32:41.818Z,53.24
2023-03-22T12:37:48.151Z,52.69
2023-03-22T12:43:00.515Z,52.49
2023-03-22T12:48:11.314Z,52.39
2023-03-22T12:53:16.768Z,52.26
2023-03-22T12:58:23.717Z,52.18
2023-03-22T13:03:29.630Z,52.29
2023-03-22T13:09:05.290Z,51.71
2023-03-22T13:14:13.786Z,51.81
2023-03-22T13:19:33.485Z,51.74
2023-03-22T13:25:00.629Z,51.45
2023-03-22T13:30:10.460Z,51.10
2023-03-22T13:35:23.664Z,51.26
2023-03-22T13:40:38.188Z,50.95
2023-03-22T13:46:03.657Z,51.33
2023-03-22T13:51:12.629Z,51.22
2023-03-22T13:56:33.636Z,51.45
2023-03-22T14:01:48.753Z,52.01
2023-03-22T14:06:58.947Z,52.27
2023-03-22T14:12:09.269Z,52.80
2023-03-22T14:17:32.447Z,52.53
